Villa Angela, Argentina
Current Conditions -  °F | °C
As of 3:00 PM on Sunday 21 Dec 2014 (Local Time) from SARE Reporting Station
Broken Clouds Broken Clouds  
Wind Chill: 81°   Ceiling: 1800
Heat Index: 84°   Visibility: 6mi
Dew Point: 70°   Wind: 2mph
Humidity: 70%   Direction: 160°SSE
Pressure: 29.65"   Gusts: NA
Location:  27.58°S, 60.72°W
Report Text: SARE 211800Z 16002KT 9999 SCT010 BKN018 BKN100 27/21 Q1004
Loading
Personal Weather Stations






























Interactive Weather Map New forecast layout! Learn more

10-Day Weather Forecast

Advertisements
Track Severe Weather on mobile